sensor_id;sensor_type;location;lat;lon;timestamp;pressure;altitude;pressure_sealevel;temperature;humidity
55317;BME280;41178;48.956;8.130;2023-04-20T00:02:07;99559.09;;;7.12;41.82
55317;BME280;41178;48.956;8.130;2023-04-20T00:07:09;99329.28;;;5.32;43.34
55317;BME280;41178;48.956;8.130;2023-04-20T00:12:10;99460.44;;;6.15;42.90
55317;BME280;41178;48.956;8.130;2023-04-20T00:17:12;99460.09;;;6.02;43.46
55317;BME280;41178;48.956;8.130;2023-04-20T00:22:13;99390.72;;;5.54;44.15
55317;BME280;41178;48.956;8.130;2023-04-20T00:27:15;99377.56;;;5.36;44.11
55317;BME280;41178;48.956;8.130;2023-04-20T00:32:17;99362.53;;;5.10;44.77
55317;BME280;41178;48.956;8.130;2023-04-20T00:37:18;99312.69;;;4.80;45.38
55317;BME280;41178;48.956;8.130;2023-04-20T00:42:20;99488.47;;;6.01;43.42
55317;BME280;41178;48.956;8.130;2023-04-20T00:47:21;99300.53;;;4.43;45.71
55317;BME280;41178;48.956;8.130;2023-04-20T00:52:23;99358.41;;;4.55;46.21
55317;BME280;41178;48.956;8.130;2023-04-20T00:57:25;99391.78;;;4.66;45.98
55317;BME280;41178;48.956;8.130;2023-04-20T01:02:28;99396.22;;;4.66;45.99
55317;BME280;41178;48.956;8.130;2023-04-20T01:07:30;99325.47;;;3.78;47.20
55317;BME280;41178;48.956;8.130;2023-04-20T01:12:31;99394.31;;;4.32;46.53
55317;BME280;41178;48.956;8.130;2023-04-20T01:17:34;99414.84;;;4.48;46.38
55317;BME280;41178;48.956;8.130;2023-04-20T01:22:47;99457.53;;;4.89;45.85
55317;BME280;41178;48.956;8.130;2023-04-20T01:27:50;99419.19;;;4.57;46.37
55317;BME280;41178;48.956;8.130;2023-04-20T01:32:51;99425.88;;;4.61;45.48
55317;BME280;41178;48.956;8.130;2023-04-20T01:37:53;99461.66;;;5.09;45.00
55317;BME280;41178;48.956;8.130;2023-04-20T01:42:55;99448.03;;;4.78;45.41
55317;BME280;41178;48.956;8.130;2023-04-20T01:47:56;99462.22;;;5.21;45.25
55317;BME280;41178;48.956;8.130;2023-04-20T01:52:58;99485.53;;;5.70;44.74
55317;BME280;41178;48.956;8.130;2023-04-20T01:58:00;99483.38;;;5.39;44.28
55317;BME280;41178;48.956;8.130;2023-04-20T02:03:02;99491.44;;;5.56;44.39
55317;BME280;41178;48.956;8.130;2023-04-20T02:08:04;99434.56;;;4.71;44.58
55317;BME280;41178;48.956;8.130;2023-04-20T02:13:06;99333.56;;;3.76;45.76
55317;BME280;41178;48.956;8.130;2023-04-20T02:18:07;99438.19;;;4.70;45.41
55317;BME280;41178;48.956;8.130;2023-04-20T02:23:09;99406.00;;;4.39;45.73
55317;BME280;41178;48.956;8.130;2023-04-20T02:28:11;99397.34;;;4.37;45.18
55317;BME280;41178;48.956;8.130;2023-04-20T02:33:12;99473.63;;;5.48;44.15
55317;BME280;41178;48.956;8.130;2023-04-20T02:38:14;99416.06;;;4.80;45.42
55317;BME280;41178;48.956;8.130;2023-04-20T02:43:16;99446.72;;;5.08;44.30
55317;BME280;41178;48.956;8.130;2023-04-20T02:48:17;99396.81;;;4.51;45.36
55317;BME280;41178;48.956;8.130;2023-04-20T02:53:19;99397.72;;;4.24;45.49
55317;BME280;41178;48.956;8.130;2023-04-20T02:58:21;99377.97;;;4.18;46.15
55317;BME280;41178;48.956;8.130;2023-04-20T03:03:22;99324.00;;;3.30;47.13
55317;BME280;41178;48.956;8.130;2023-04-20T03:08:24;99340.22;;;3.62;47.13
55317;BME280;41178;48.956;8.130;2023-04-20T03:13:26;99385.16;;;4.26;45.59
55317;BME280;41178;48.956;8.130;2023-04-20T03:18:28;99418.94;;;4.94;45.07
55317;BME280;41178;48.956;8.130;2023-04-20T03:23:29;99353.63;;;3.79;47.00
55317;BME280;41178;48.956;8.130;2023-04-20T03:28:31;99347.28;;;3.72;47.35
55317;BME280;41178;48.956;8.130;2023-04-20T03:33:33;99386.97;;;4.26;46.56
55317;BME280;41178;48.956;8.130;2023-04-20T03:38:34;99351.19;;;3.68;46.67
55317;BME280;41178;48.956;8.130;2023-04-20T03:43:36;99360.28;;;4.01;46.44
55317;BME280;41178;48.956;8.130;2023-04-20T03:48:38;99388.94;;;4.42;45.76
55317;BME280;41178;48.956;8.130;2023-04-20T03:53:39;99328.88;;;3.52;46.57
55317;BME280;41178;48.956;8.130;2023-04-20T03:58:41;99356.19;;;3.89;46.41
55317;BME280;41178;48.956;8.130;2023-04-20T04:03:43;99397.16;;;4.83;46.18
55317;BME280;41178;48.956;8.130;2023-04-20T04:08:45;99323.56;;;3.52;46.95
55317;BME280;41178;48.956;8.130;2023-04-20T04:13:48;99356.81;;;4.00;46.44
55317;BME280;41178;48.956;8.130;2023-04-20T04:18:50;99360.28;;;4.01;46.14
55317;BME280;41178;48.956;8.130;2023-04-20T04:23:52;99410.06;;;5.04;44.96
55317;BME280;41178;48.956;8.130;2023-04-20T04:28:53;99405.28;;;4.55;45.76
55317;BME280;41178;48.956;8.130;2023-04-20T04:33:55;99450.56;;;5.48;44.27
55317;BME280;41178;48.956;8.130;2023-04-20T04:38:57;99409.06;;;4.52;44.80
55317;BME280;41178;48.956;8.130;2023-04-20T04:43:58;99345.81;;;3.59;47.16
55317;BME280;41178;48.956;8.130;2023-04-20T04:49:01;99363.44;;;4.05;47.00
55317;BME280;41178;48.956;8.130;2023-04-20T04:54:03;99358.75;;;3.98;47.27
55317;BME280;41178;48.956;8.130;2023-04-20T04:59:05;99417.13;;;5.21;45.96
55317;BME280;41178;48.956;8.130;2023-04-20T05:05:34;99414.22;;;1.82;51.79
55317;BME280;41178;48.956;8.130;2023-04-20T05:10:36;99492.09;;;3.42;49.41
55317;BME280;41178;48.956;8.130;2023-04-20T05:15:38;99505.75;;;3.75;49.23
55317;BME280;41178;48.956;8.130;2023-04-20T05:20:40;99469.81;;;2.97;50.60
55317;BME280;41178;48.956;8.130;2023-04-20T05:25:42;99436.22;;;2.50;50.54
55317;BME280;41178;48.956;8.130;2023-04-20T05:30:44;99476.19;;;3.52;49.99
55317;BME280;41178;48.956;8.130;2023-04-20T05:35:46;99482.09;;;3.36;50.31
55317;BME280;41178;48.956;8.130;2023-04-20T05:40:47;99479.81;;;3.51;50.26
55317;BME280;41178;48.956;8.130;2023-04-20T05:45:50;99467.47;;;2.75;51.03
55317;BME280;41178;48.956;8.130;2023-04-20T05:50:53;99462.59;;;2.80;51.22
55317;BME280;41178;48.956;8.130;2023-04-20T05:55:55;99489.88;;;4.02;50.17
55317;BME280;41178;48.956;8.130;2023-04-20T06:00:56;99451.34;;;2.48;52.74
55317;BME280;41178;48.956;8.130;2023-04-20T06:05:58;99453.84;;;2.60;51.92
55317;BME280;41178;48.956;8.130;2023-04-20T06:11:00;99490.53;;;4.05;50.63
55317;BME280;41178;48.956;8.130;2023-04-20T06:16:01;99447.75;;;2.69;52.46
55317;BME280;41178;48.956;8.130;2023-04-20T06:21:03;99460.22;;;2.77;52.69
55317;BME280;41178;48.956;8.130;2023-04-20T06:26:05;99487.31;;;3.83;50.94
55317;BME280;41178;48.956;8.130;2023-04-20T06:31:09;99474.06;;;3.65;51.26
55317;BME280;41178;48.956;8.130;2023-04-20T06:36:11;99470.78;;;3.53;51.98
55317;BME280;41178;48.956;8.130;2023-04-20T06:41:12;99477.50;;;4.57;50.15
55317;BME280;41178;48.956;8.130;2023-04-20T06:46:14;99484.97;;;5.93;49.21
55317;BME280;41178;48.956;8.130;2023-04-20T06:51:15;99482.44;;;5.83;49.14
55317;BME280;41178;48.956;8.130;2023-04-20T06:56:17;99488.91;;;5.20;49.00
55317;BME280;41178;48.956;8.130;2023-04-20T07:01:19;99511.66;;;5.04;49.93
55317;BME280;41178;48.956;8.130;2023-04-20T07:06:20;99488.56;;;6.67;48.07
55317;BME280;41178;48.956;8.130;2023-04-20T07:11:23;99505.13;;;5.43;49.11
55317;BME280;41178;48.956;8.130;2023-04-20T07:16:25;99508.00;;;5.84;48.84
55317;BME280;41178;48.956;8.130;2023-04-20T07:21:26;99450.97;;;4.75;50.31
55317;BME280;41178;48.956;8.130;2023-04-20T07:26:28;99502.16;;;5.80;49.69
55317;BME280;41178;48.956;8.130;2023-04-20T07:31:30;99483.09;;;6.93;48.03
55317;BME280;41178;48.956;8.130;2023-04-20T07:36:34;99515.50;;;5.97;49.63
55317;BME280;41178;48.956;8.130;2023-04-20T07:41:36;99481.78;;;6.97;48.28
55317;BME280;41178;48.956;8.130;2023-04-20T07:46:37;99491.16;;;6.26;48.97
55317;BME280;41178;48.956;8.130;2023-04-20T07:51:39;99509.78;;;6.34;49.20
55317;BME280;41178;48.956;8.130;2023-04-20T07:56:40;99483.63;;;6.80;48.50
55317;BME280;41178;48.956;8.130;2023-04-20T08:01:42;99505.69;;;6.65;48.30
55317;BME280;41178;48.956;8.130;2023-04-20T08:06:43;99490.09;;;6.94;47.70
55317;BME280;41178;48.956;8.130;2023-04-20T08:11:45;99480.53;;;7.33;48.16
55317;BME280;41178;48.956;8.130;2023-04-20T08:16:47;99487.06;;;7.78;47.52
55317;BME280;41178;48.956;8.130;2023-04-20T08:21:50;99458.53;;;8.18;46.69
55317;BME280;41178;48.956;8.130;2023-04-20T08:26:51;99471.69;;;8.43;46.31
55317;BME280;41178;48.956;8.130;2023-04-20T08:31:53;99462.41;;;8.16;46.97
55317;BME280;41178;48.956;8.130;2023-04-20T08:36:55;99465.41;;;8.13;46.96
55317;BME280;41178;48.956;8.130;2023-04-20T08:41:57;99463.84;;;7.95;47.41
55317;BME280;41178;48.956;8.130;2023-04-20T08:46:59;99474.66;;;7.46;47.80
55317;BME280;41178;48.956;8.130;2023-04-20T08:52:01;99465.22;;;8.14;47.57
55317;BME280;41178;48.956;8.130;2023-04-20T08:57:03;99431.72;;;8.43;46.37
55317;BME280;41178;48.956;8.130;2023-04-20T09:02:11;99481.34;;;7.89;47.59
55317;BME280;41178;48.956;8.130;2023-04-20T09:07:18;99446.69;;;8.82;46.54
55317;BME280;41178;48.956;8.130;2023-04-20T09:12:20;99463.44;;;8.06;46.79
55317;BME280;41178;48.956;8.130;2023-04-20T09:17:31;99449.06;;;9.00;45.93
55317;BME280;41178;48.956;8.130;2023-04-20T09:22:35;99459.53;;;8.87;47.23
55317;BME280;41178;48.956;8.130;2023-04-20T09:27:37;99428.19;;;7.96;45.91
55317;BME280;41178;48.956;8.130;2023-04-20T09:32:38;99433.81;;;9.09;46.64
55317;BME280;41178;48.956;8.130;2023-04-20T09:37:47;99411.50;;;8.02;47.22
55317;BME280;41178;48.956;8.130;2023-04-20T09:42:50;99412.63;;;9.88;45.52
55317;BME280;41178;48.956;8.130;2023-04-20T09:47:53;99432.84;;;11.05;43.62
55317;BME280;41178;48.956;8.130;2023-04-20T09:52:55;99401.06;;;10.74;44.23
55317;BME280;41178;48.956;8.130;2023-04-20T09:58:01;99420.81;;;10.02;44.13
55317;BME280;41178;48.956;8.130;2023-04-20T10:03:03;99397.16;;;9.47;44.08
55317;BME280;41178;48.956;8.130;2023-04-20T10:08:05;99349.69;;;8.45;45.19
55317;BME280;41178;48.956;8.130;2023-04-20T10:13:07;99399.13;;;10.11;44.30
55317;BME280;41178;48.956;8.130;2023-04-20T10:18:21;99403.19;;;10.29;42.97
55317;BME280;41178;48.956;8.130;2023-04-20T10:23:25;99410.31;;;9.19;44.06
55317;BME280;41178;48.956;8.130;2023-04-20T10:28:37;99373.94;;;9.33;43.61
55317;BME280;41178;48.956;8.130;2023-04-20T10:38:51;99393.31;;;9.86;44.19
55317;BME280;41178;48.956;8.130;2023-04-20T10:43:53;99380.72;;;9.65;45.00
55317;BME280;41178;48.956;8.130;2023-04-20T10:48:59;99383.44;;;10.51;43.90
55317;BME280;41178;48.956;8.130;2023-04-20T10:54:06;99392.66;;;9.84;43.81
55317;BME280;41178;48.956;8.130;2023-04-20T10:59:10;99336.94;;;8.70;44.37
55317;BME280;41178;48.956;8.130;2023-04-20T11:06:31;99314.84;;;6.99;48.01
55317;BME280;41178;48.956;8.130;2023-04-20T11:11:33;99396.94;;;7.90;47.18
55317;BME280;41178;48.956;8.130;2023-04-20T11:16:38;99386.63;;;8.33;46.85
55317;BME280;41178;48.956;8.130;2023-04-20T11:21:52;99383.53;;;7.98;47.12
55317;BME280;41178;48.956;8.130;2023-04-20T11:26:54;99381.47;;;8.32;47.23
55317;BME280;41178;48.956;8.130;2023-04-20T11:31:57;99367.13;;;8.33;47.18
55317;BME280;41178;48.956;8.130;2023-04-20T11:37:17;99379.06;;;8.22;47.11
55317;BME280;41178;48.956;8.130;2023-04-20T11:42:19;99378.53;;;8.79;47.13
55317;BME280;41178;48.956;8.130;2023-04-20T11:47:20;99333.03;;;7.82;48.60
55317;BME280;41178;48.956;8.130;2023-04-20T11:52:22;99357.22;;;8.94;48.75
55317;BME280;41178;48.956;8.130;2023-04-20T11:57:24;99287.97;;;7.49;50.36
55317;BME280;41178;48.956;8.130;2023-04-20T12:02:26;99339.66;;;8.47;50.39
55317;BME280;41178;48.956;8.130;2023-04-20T12:07:27;99317.06;;;8.43;51.31
55317;BME280;41178;48.956;8.130;2023-04-20T12:12:29;99323.00;;;8.30;50.73
55317;BME280;41178;48.956;8.130;2023-04-20T12:17:31;99327.50;;;7.91;51.43
55317;BME280;41178;48.956;8.130;2023-04-20T12:22:33;99317.75;;;8.22;50.88
55317;BME280;41178;48.956;8.130;2023-04-20T12:27:35;99311.91;;;9.31;49.52
55317;BME280;41178;48.956;8.130;2023-04-20T12:32:36;99310.53;;;9.35;48.33
55317;BME280;41178;48.956;8.130;2023-04-20T12:37:38;99323.44;;;9.16;48.21
55317;BME280;41178;48.956;8.130;2023-04-20T12:42:40;99346.53;;;10.19;46.61
55317;BME280;41178;48.956;8.130;2023-04-20T12:47:41;99352.53;;;10.49;46.73
55317;BME280;41178;48.956;8.130;2023-04-20T12:52:43;99327.34;;;9.50;47.28
55317;BME280;41178;48.956;8.130;2023-04-20T12:57:45;99329.66;;;9.38;45.91
55317;BME280;41178;48.956;8.130;2023-04-20T13:02:47;99346.13;;;9.42;45.25
55317;BME280;41178;48.956;8.130;2023-04-20T13:07:49;99298.63;;;8.33;46.82
55317;BME280;41178;48.956;8.130;2023-04-20T13:12:51;99326.44;;;8.54;46.70
55317;BME280;41178;48.956;8.130;2023-04-20T13:17:52;99304.22;;;8.08;47.41
55317;BME280;41178;48.956;8.130;2023-04-20T13:22:59;99362.34;;;8.66;46.90
55317;BME280;41178;48.956;8.130;2023-04-20T13:28:02;99352.94;;;8.70;46.71
55317;BME280;41178;48.956;8.130;2023-04-20T13:33:04;99296.03;;;8.10;47.74
55317;BME280;41178;48.956;8.130;2023-04-20T13:38:06;99332.72;;;9.20;47.25
55317;BME280;41178;48.956;8.130;2023-04-20T13:43:08;99331.78;;;8.39;49.02
55317;BME280;41178;48.956;8.130;2023-04-20T13:48:10;99323.91;;;8.22;49.69
55317;BME280;41178;48.956;8.130;2023-04-20T13:53:12;99341.19;;;8.26;49.23
55317;BME280;41178;48.956;8.130;2023-04-20T13:58:13;99347.56;;;8.40;49.39
55317;BME280;41178;48.956;8.130;2023-04-20T14:03:15;99312.97;;;7.94;51.58
55317;BME280;41178;48.956;8.130;2023-04-20T14:08:19;99330.47;;;8.11;50.96
55317;BME280;41178;48.956;8.130;2023-04-20T14:13:21;99296.09;;;7.79;51.17
55317;BME280;41178;48.956;8.130;2023-04-20T14:18:23;99341.34;;;8.48;50.61
55317;BME280;41178;48.956;8.130;2023-04-20T14:23:25;99304.44;;;8.37;50.76
55317;BME280;41178;48.956;8.130;2023-04-20T14:28:27;99316.63;;;8.16;51.84
55317;BME280;41178;48.956;8.130;2023-04-20T14:33:28;99318.34;;;8.62;51.16
55317;BME280;41178;48.956;8.130;2023-04-20T14:38:30;99303.53;;;8.44;51.96
55317;BME280;41178;48.956;8.130;2023-04-20T14:43:32;99324.78;;;8.53;51.92
55317;BME280;41178;48.956;8.130;2023-04-20T14:48:34;99284.97;;;7.75;52.48
55317;BME280;41178;48.956;8.130;2023-04-20T14:53:38;99290.75;;;7.79;53.37
55317;BME280;41178;48.956;8.130;2023-04-20T14:58:40;99202.03;;;6.86;54.89
55317;BME280;41178;48.956;8.130;2023-04-20T15:03:42;99307.22;;;7.82;54.26
55317;BME280;41178;48.956;8.130;2023-04-20T15:08:44;99302.22;;;8.25;52.19
55317;BME280;41178;48.956;8.130;2023-04-20T15:13:48;99294.13;;;7.72;51.77
55317;BME280;41178;48.956;8.130;2023-04-20T15:18:50;99301.50;;;7.94;50.81
55317;BME280;41178;48.956;8.130;2023-04-20T15:23:53;99344.44;;;8.37;50.39
55317;BME280;41178;48.956;8.130;2023-04-20T15:28:54;99358.59;;;8.90;50.07
55317;BME280;41178;48.956;8.130;2023-04-20T15:33:58;99286.09;;;7.26;52.10
55317;BME280;41178;48.956;8.130;2023-04-20T15:39:00;99318.41;;;8.24;50.02
55317;BME280;41178;48.956;8.130;2023-04-20T15:44:02;99332.19;;;8.27;50.46
55317;BME280;41178;48.956;8.130;2023-04-20T15:49:04;99333.19;;;8.94;50.38
55317;BME280;41178;48.956;8.130;2023-04-20T15:54:06;99334.06;;;8.04;52.30
55317;BME280;41178;48.956;8.130;2023-04-20T15:59:07;99324.81;;;8.97;50.45
55317;BME280;41178;48.956;8.130;2023-04-20T16:04:09;99343.38;;;9.35;50.28
55317;BME280;41178;48.956;8.130;2023-04-20T16:09:11;99243.34;;;6.96;53.37
55317;BME280;41178;48.956;8.130;2023-04-20T16:14:13;99370.38;;;8.43;51.97
55317;BME280;41178;48.956;8.130;2023-04-20T16:19:15;99334.81;;;7.66;53.02
55317;BME280;41178;48.956;8.130;2023-04-20T16:24:17;99350.06;;;9.10;50.47
55317;BME280;41178;48.956;8.130;2023-04-20T16:29:19;99377.34;;;8.06;53.11
55317;BME280;41178;48.956;8.130;2023-04-20T16:34:21;99369.06;;;9.36;50.61
55317;BME280;41178;48.956;8.130;2023-04-20T16:39:24;99323.88;;;8.07;51.95
55317;BME280;41178;48.956;8.130;2023-04-20T16:44:26;99355.19;;;8.43;51.89
55317;BME280;41178;48.956;8.130;2023-04-20T16:49:28;99374.13;;;9.31;50.97
55317;BME280;41178;48.956;8.130;2023-04-20T16:54:30;99360.41;;;7.99;53.62
55317;BME280;41178;48.956;8.130;2023-04-20T16:59:31;99356.34;;;8.49;52.10
55317;BME280;41178;48.956;8.130;2023-04-20T17:04:33;99341.34;;;8.10;52.36
55317;BME280;41178;48.956;8.130;2023-04-20T17:09:36;99378.72;;;8.78;52.05
55317;BME280;41178;48.956;8.130;2023-04-20T17:14:38;99411.72;;;9.81;50.14
55317;BME280;41178;48.956;8.130;2023-04-20T17:19:39;99394.66;;;9.31;51.20
55317;BME280;41178;48.956;8.130;2023-04-20T17:24:41;99376.69;;;9.39;50.94
55317;BME280;41178;48.956;8.130;2023-04-20T17:29:43;99332.88;;;8.44;51.00
55317;BME280;41178;48.956;8.130;2023-04-20T17:34:45;99363.84;;;9.13;50.47
55317;BME280;41178;48.956;8.130;2023-04-20T17:39:49;99393.03;;;9.66;49.54
55317;BME280;41178;48.956;8.130;2023-04-20T17:44:50;99430.84;;;9.03;50.32
55317;BME280;41178;48.956;8.130;2023-04-20T17:49:53;99399.09;;;8.94;50.86
55317;BME280;41178;48.956;8.130;2023-04-20T17:54:56;99411.06;;;8.98;50.80
55317;BME280;41178;48.956;8.130;2023-04-20T17:59:58;99424.19;;;9.89;48.95
55317;BME280;41178;48.956;8.130;2023-04-20T18:04:59;99410.13;;;9.35;50.23
55317;BME280;41178;48.956;8.130;2023-04-20T18:10:02;99395.63;;;9.23;49.88
55317;BME280;41178;48.956;8.130;2023-04-20T18:15:04;99447.34;;;10.03;48.73
55317;BME280;41178;48.956;8.130;2023-04-20T18:20:09;99370.66;;;7.79;52.00
55317;BME280;41178;48.956;8.130;2023-04-20T18:25:11;99437.66;;;8.91;50.49
55317;BME280;41178;48.956;8.130;2023-04-20T18:30:13;99430.31;;;8.32;51.14
55317;BME280;41178;48.956;8.130;2023-04-20T18:35:15;99420.75;;;8.38;51.35
55317;BME280;41178;48.956;8.130;2023-04-20T18:40:17;99420.09;;;8.13;51.48
55317;BME280;41178;48.956;8.130;2023-04-20T18:45:18;99440.69;;;8.88;50.77
55317;BME280;41178;48.956;8.130;2023-04-20T18:50:23;99426.66;;;8.48;51.45
55317;BME280;41178;48.956;8.130;2023-04-20T18:55:24;99358.72;;;7.43;52.74
55317;BME280;41178;48.956;8.130;2023-04-20T19:00:26;99394.41;;;7.97;51.66
55317;BME280;41178;48.956;8.130;2023-04-20T19:05:28;99436.97;;;8.74;51.18
55317;BME280;41178;48.956;8.130;2023-04-20T19:10:31;99412.44;;;8.09;52.13
55317;BME280;41178;48.956;8.130;2023-04-20T19:15:33;99405.84;;;8.05;52.19
55317;BME280;41178;48.956;8.130;2023-04-20T19:20:35;99398.28;;;7.86;52.25
55317;BME280;41178;48.956;8.130;2023-04-20T19:25:36;99401.25;;;7.91;52.59
55317;BME280;41178;48.956;8.130;2023-04-20T19:30:38;99338.47;;;6.94;54.33
55317;BME280;41178;48.956;8.130;2023-04-20T19:35:40;99421.75;;;7.82;53.37
55317;BME280;41178;48.956;8.130;2023-04-20T19:40:43;99427.22;;;8.20;52.57
55317;BME280;41178;48.956;8.130;2023-04-20T19:45:45;99397.72;;;7.59;53.31
55317;BME280;41178;48.956;8.130;2023-04-20T19:50:48;99438.81;;;8.04;52.86
55317;BME280;41178;48.956;8.130;2023-04-20T19:55:50;99418.22;;;7.59;53.11
55317;BME280;41178;48.956;8.130;2023-04-20T20:00:52;99410.75;;;7.54;53.22
55317;BME280;41178;48.956;8.130;2023-04-20T20:05:54;99423.75;;;8.58;51.46
55317;BME280;41178;48.956;8.130;2023-04-20T20:10:56;99437.22;;;7.47;53.52
55317;BME280;41178;48.956;8.130;2023-04-20T20:15:57;99440.78;;;8.10;52.88
55317;BME280;41178;48.956;8.130;2023-04-20T20:20:59;99424.53;;;7.18;53.99
55317;BME280;41178;48.956;8.130;2023-04-20T20:26:01;99452.31;;;7.63;53.15
55317;BME280;41178;48.956;8.130;2023-04-20T20:31:03;99318.13;;;6.21;55.88
55317;BME280;41178;48.956;8.130;2023-04-20T20:36:05;99463.03;;;7.86;53.32
55317;BME280;41178;48.956;8.130;2023-04-20T20:41:07;99450.06;;;7.83;53.02
55317;BME280;41178;48.956;8.130;2023-04-20T20:46:09;99435.22;;;8.20;51.91
55317;BME280;41178;48.956;8.130;2023-04-20T20:51:11;99376.72;;;6.69;55.15
55317;BME280;41178;48.956;8.130;2023-04-20T20:56:13;99374.06;;;6.69;54.72
55317;BME280;41178;48.956;8.130;2023-04-20T21:01:15;99447.25;;;7.77;53.44
55317;BME280;41178;48.956;8.130;2023-04-20T21:06:18;99386.03;;;6.73;55.70
55317;BME280;41178;48.956;8.130;2023-04-20T21:11:20;99381.03;;;6.70;54.84
55317;BME280;41178;48.956;8.130;2023-04-20T21:16:22;99434.25;;;7.42;53.61
55317;BME280;41178;48.956;8.130;2023-04-20T21:21:23;99398.16;;;6.67;55.70
55317;BME280;41178;48.956;8.130;2023-04-20T21:26:25;99423.28;;;6.81;54.50
55317;BME280;41178;48.956;8.130;2023-04-20T21:31:27;99445.75;;;7.43;53.67
55317;BME280;41178;48.956;8.130;2023-04-20T21:36:29;99437.56;;;7.92;52.17
55317;BME280;41178;48.956;8.130;2023-04-20T21:41:31;99318.00;;;5.98;54.90
55317;BME280;41178;48.956;8.130;2023-04-20T21:46:32;99460.84;;;7.50;53.28
55317;BME280;41178;48.956;8.130;2023-04-20T21:51:34;99434.06;;;6.79;54.61
55317;BME280;41178;48.956;8.130;2023-04-20T21:56:36;99438.00;;;7.08;53.37
55317;BME280;41178;48.956;8.130;2023-04-20T22:01:38;99391.88;;;6.27;55.30
55317;BME280;41178;48.956;8.130;2023-04-20T22:06:40;99375.44;;;6.23;55.34
55317;BME280;41178;48.956;8.130;2023-04-20T22:11:41;99447.56;;;7.90;51.85
55317;BME280;41178;48.956;8.130;2023-04-20T22:16:43;99458.97;;;7.59;52.86
55317;BME280;41178;48.956;8.130;2023-04-20T22:21:45;99468.16;;;7.01;54.38
55317;BME280;41178;48.956;8.130;2023-04-20T22:26:47;99456.59;;;7.25;53.44
55317;BME280;41178;48.956;8.130;2023-04-20T22:31:49;99479.22;;;7.21;53.95
55317;BME280;41178;48.956;8.130;2023-04-20T22:36:51;99369.09;;;6.00;54.65
55317;BME280;41178;48.956;8.130;2023-04-20T22:41:52;99478.38;;;7.84;52.08
55317;BME280;41178;48.956;8.130;2023-04-20T22:46:54;99477.56;;;7.76;52.23
55317;BME280;41178;48.956;8.130;2023-04-20T22:51:56;99499.03;;;7.26;54.06
55317;BME280;41178;48.956;8.130;2023-04-20T22:56:58;99488.84;;;7.38;53.16
55317;BME280;41178;48.956;8.130;2023-04-20T23:01:59;99399.28;;;5.91;55.29
55317;BME280;41178;48.956;8.130;2023-04-20T23:07:01;99260.00;;;4.85;57.87
55317;BME280;41178;48.956;8.130;2023-04-20T23:12:03;99373.94;;;5.45;57.04
55317;BME280;41178;48.956;8.130;2023-04-20T23:17:06;99251.38;;;4.48;59.31
55317;BME280;41178;48.956;8.130;2023-04-20T23:22:07;99274.75;;;4.53;59.12
55317;BME280;41178;48.956;8.130;2023-04-20T23:27:10;99475.16;;;5.93;56.44
55317;BME280;41178;48.956;8.130;2023-04-20T23:32:11;99299.28;;;4.55;58.52
55317;BME280;41178;48.956;8.130;2023-04-20T23:37:13;99473.09;;;6.38;54.46
55317;BME280;41178;48.956;8.130;2023-04-20T23:42:15;99340.81;;;4.81;57.12
55317;BME280;41178;48.956;8.130;2023-04-20T23:47:17;99354.78;;;4.91;58.11
55317;BME280;41178;48.956;8.130;2023-04-20T23:52:19;99405.31;;;5.16;57.25
55317;BME280;41178;48.956;8.130;2023-04-20T23:57:20;99463.56;;;5.94;55.99
